sensor_id;sensor_type;location;lat;lon;timestamp;P1;durP1;ratioP1;P2;durP2;ratioP2
20772;SDS011;10546;50.674;4.616;2024-01-11T06:52:27;37.63;;;15.70;;
20772;SDS011;10546;50.674;4.616;2024-01-11T06:54:57;45.40;;;18.60;;
20772;SDS011;10546;50.674;4.616;2024-01-11T06:57:23;49.57;;;19.47;;
20772;SDS011;10546;50.674;4.616;2024-01-11T06:59:49;50.73;;;18.53;;
20772;SDS011;10546;50.674;4.616;2024-01-11T07:02:15;47.40;;;18.33;;
20772;SDS011;10546;50.674;4.616;2024-01-11T07:04:44;47.37;;;18.20;;
20772;SDS011;10546;50.674;4.616;2024-01-11T07:07:11;42.87;;;17.90;;
20772;SDS011;10546;50.674;4.616;2024-01-11T07:09:45;42.07;;;16.77;;
20772;SDS011;10546;50.674;4.616;2024-01-11T07:12:11;48.37;;;17.90;;
20772;SDS011;10546;50.674;4.616;2024-01-11T07:14:36;51.20;;;18.90;;
20772;SDS011;10546;50.674;4.616;2024-01-11T07:17:02;43.73;;;17.40;;
20772;SDS011;10546;50.674;4.616;2024-01-11T07:19:29;46.97;;;18.07;;
20772;SDS011;10546;50.674;4.616;2024-01-11T07:21:54;52.27;;;19.40;;
20772;SDS011;10546;50.674;4.616;2024-01-11T07:24:23;39.83;;;18.17;;
20772;SDS011;10546;50.674;4.616;2024-01-11T07:26:50;44.27;;;18.50;;
20772;SDS011;10546;50.674;4.616;2024-01-11T07:29:15;43.27;;;18.37;;
20772;SDS011;10546;50.674;4.616;2024-01-11T07:31:41;49.60;;;19.03;;
20772;SDS011;10546;50.674;4.616;2024-01-11T07:34:07;47.97;;;19.43;;
20772;SDS011;10546;50.674;4.616;2024-01-11T07:36:32;43.07;;;19.67;;
20772;SDS011;10546;50.674;4.616;2024-01-11T07:38:58;45.90;;;20.00;;
20772;SDS011;10546;50.674;4.616;2024-01-11T07:41:24;49.67;;;19.57;;
20772;SDS011;10546;50.674;4.616;2024-01-11T07:43:49;42.43;;;15.70;;
20772;SDS011;10546;50.674;4.616;2024-01-11T07:46:15;46.90;;;17.60;;
20772;SDS011;10546;50.674;4.616;2024-01-11T07:48:42;45.27;;;18.37;;
20772;SDS011;10546;50.674;4.616;2024-01-11T07:51:08;40.13;;;18.47;;
20772;SDS011;10546;50.674;4.616;2024-01-11T07:53:35;40.07;;;16.23;;
20772;SDS011;10546;50.674;4.616;2024-01-11T07:56:01;49.00;;;19.63;;
20772;SDS011;10546;50.674;4.616;2024-01-11T07:58:27;47.90;;;18.87;;
20772;SDS011;10546;50.674;4.616;2024-01-11T08:00:52;51.43;;;20.50;;
20772;SDS011;10546;50.674;4.616;2024-01-11T08:03:19;48.73;;;20.13;;
20772;SDS011;10546;50.674;4.616;2024-01-11T08:05:44;51.67;;;21.03;;
20772;SDS011;10546;50.674;4.616;2024-01-11T08:08:11;43.73;;;18.60;;
20772;SDS011;10546;50.674;4.616;2024-01-11T08:10:36;42.90;;;18.30;;
20772;SDS011;10546;50.674;4.616;2024-01-11T08:13:02;50.10;;;21.17;;
20772;SDS011;10546;50.674;4.616;2024-01-11T08:15:28;51.83;;;21.37;;
20772;SDS011;10546;50.674;4.616;2024-01-11T08:17:54;53.67;;;21.07;;
20772;SDS011;10546;50.674;4.616;2024-01-11T08:20:20;58.87;;;22.07;;
20772;SDS011;10546;50.674;4.616;2024-01-11T08:22:46;52.53;;;22.33;;
20772;SDS011;10546;50.674;4.616;2024-01-11T08:25:12;51.57;;;21.47;;
20772;SDS011;10546;50.674;4.616;2024-01-11T08:27:38;50.93;;;22.03;;
20772;SDS011;10546;50.674;4.616;2024-01-11T08:30:04;51.63;;;21.47;;
20772;SDS011;10546;50.674;4.616;2024-01-11T08:32:33;48.83;;;21.90;;
20772;SDS011;10546;50.674;4.616;2024-01-11T08:35:04;51.87;;;21.93;;
20772;SDS011;10546;50.674;4.616;2024-01-11T08:37:34;54.17;;;21.77;;
20772;SDS011;10546;50.674;4.616;2024-01-11T08:40:01;56.03;;;22.80;;
20772;SDS011;10546;50.674;4.616;2024-01-11T08:42:29;52.33;;;21.57;;
20772;SDS011;10546;50.674;4.616;2024-01-11T08:44:55;47.47;;;21.23;;
20772;SDS011;10546;50.674;4.616;2024-01-11T08:47:21;53.03;;;21.70;;
20772;SDS011;10546;50.674;4.616;2024-01-11T08:49:49;55.53;;;21.60;;
20772;SDS011;10546;50.674;4.616;2024-01-11T08:52:15;58.27;;;23.00;;
20772;SDS011;10546;50.674;4.616;2024-01-11T08:54:42;49.03;;;22.23;;
20772;SDS011;10546;50.674;4.616;2024-01-11T08:57:07;50.60;;;21.77;;
20772;SDS011;10546;50.674;4.616;2024-01-11T08:59:33;42.67;;;19.30;;
20772;SDS011;10546;50.674;4.616;2024-01-11T09:01:59;49.93;;;23.03;;
20772;SDS011;10546;50.674;4.616;2024-01-11T09:04:24;57.40;;;23.27;;
20772;SDS011;10546;50.674;4.616;2024-01-11T09:06:50;56.37;;;22.97;;
20772;SDS011;10546;50.674;4.616;2024-01-11T09:09:15;48.07;;;21.47;;
20772;SDS011;10546;50.674;4.616;2024-01-11T09:11:42;50.90;;;23.43;;
20772;SDS011;10546;50.674;4.616;2024-01-11T09:14:07;49.07;;;22.43;;
20772;SDS011;10546;50.674;4.616;2024-01-11T09:16:36;52.27;;;23.57;;
20772;SDS011;10546;50.674;4.616;2024-01-11T09:19:02;53.23;;;23.97;;
20772;SDS011;10546;50.674;4.616;2024-01-11T09:21:27;51.37;;;21.67;;
20772;SDS011;10546;50.674;4.616;2024-01-11T09:23:53;46.97;;;21.70;;
20772;SDS011;10546;50.674;4.616;2024-01-11T09:26:19;49.60;;;22.13;;
20772;SDS011;10546;50.674;4.616;2024-01-11T09:28:44;43.13;;;20.47;;
20772;SDS011;10546;50.674;4.616;2024-01-11T09:31:12;44.43;;;19.33;;
20772;SDS011;10546;50.674;4.616;2024-01-11T09:33:38;47.67;;;22.93;;
20772;SDS011;10546;50.674;4.616;2024-01-11T09:36:04;52.80;;;23.73;;
20772;SDS011;10546;50.674;4.616;2024-01-11T09:38:30;51.80;;;21.47;;
20772;SDS011;10546;50.674;4.616;2024-01-11T09:43:30;49.63;;;21.70;;
20772;SDS011;10546;50.674;4.616;2024-01-11T09:45:58;53.70;;;24.10;;
20772;SDS011;10546;50.674;4.616;2024-01-11T09:48:25;54.13;;;24.83;;
20772;SDS011;10546;50.674;4.616;2024-01-11T09:50:52;53.00;;;22.97;;
20772;SDS011;10546;50.674;4.616;2024-01-11T09:53:19;53.90;;;25.03;;
20772;SDS011;10546;50.674;4.616;2024-01-11T09:55:46;50.07;;;22.53;;
20772;SDS011;10546;50.674;4.616;2024-01-11T09:58:12;56.37;;;24.67;;
20772;SDS011;10546;50.674;4.616;2024-01-11T10:00:39;50.03;;;24.37;;
20772;SDS011;10546;50.674;4.616;2024-01-11T10:03:06;55.20;;;24.13;;
20772;SDS011;10546;50.674;4.616;2024-01-11T10:05:32;46.67;;;23.90;;
20772;SDS011;10546;50.674;4.616;2024-01-11T10:08:00;49.50;;;24.10;;
20772;SDS011;10546;50.674;4.616;2024-01-11T10:10:26;54.00;;;24.90;;
20772;SDS011;10546;50.674;4.616;2024-01-11T10:12:52;49.70;;;22.33;;
20772;SDS011;10546;50.674;4.616;2024-01-11T10:15:18;47.03;;;23.47;;
20772;SDS011;10546;50.674;4.616;2024-01-11T10:17:44;53.57;;;25.30;;
20772;SDS011;10546;50.674;4.616;2024-01-11T10:20:11;51.70;;;24.63;;
20772;SDS011;10546;50.674;4.616;2024-01-11T10:22:41;52.83;;;24.10;;
20772;SDS011;10546;50.674;4.616;2024-01-11T10:25:12;53.50;;;24.50;;
20772;SDS011;10546;50.674;4.616;2024-01-11T10:27:40;57.17;;;25.77;;
20772;SDS011;10546;50.674;4.616;2024-01-11T10:30:14;56.07;;;25.10;;
20772;SDS011;10546;50.674;4.616;2024-01-11T10:32:53;55.00;;;24.83;;
20772;SDS011;10546;50.674;4.616;2024-01-11T10:35:24;57.90;;;26.13;;
20772;SDS011;10546;50.674;4.616;2024-01-11T10:37:52;53.90;;;25.90;;
20772;SDS011;10546;50.674;4.616;2024-01-11T10:40:21;51.00;;;24.50;;
20772;SDS011;10546;50.674;4.616;2024-01-11T10:42:50;57.23;;;25.93;;
20772;SDS011;10546;50.674;4.616;2024-01-11T10:45:17;54.97;;;25.80;;
20772;SDS011;10546;50.674;4.616;2024-01-11T10:47:53;60.37;;;27.73;;
20772;SDS011;10546;50.674;4.616;2024-01-11T10:50:22;61.67;;;26.63;;
20772;SDS011;10546;50.674;4.616;2024-01-11T10:52:54;48.20;;;22.10;;
20772;SDS011;10546;50.674;4.616;2024-01-11T10:55:33;51.30;;;25.27;;
20772;SDS011;10546;50.674;4.616;2024-01-11T10:58:00;58.40;;;24.83;;
20772;SDS011;10546;50.674;4.616;2024-01-11T11:00:28;57.20;;;24.77;;
20772;SDS011;10546;50.674;4.616;2024-01-11T11:02:55;56.53;;;24.97;;
20772;SDS011;10546;50.674;4.616;2024-01-11T11:05:23;50.03;;;20.57;;
20772;SDS011;10546;50.674;4.616;2024-01-11T11:07:50;59.27;;;27.30;;
20772;SDS011;10546;50.674;4.616;2024-01-11T11:10:20;59.20;;;25.57;;
20772;SDS011;10546;50.674;4.616;2024-01-11T11:12:47;52.03;;;23.00;;
20772;SDS011;10546;50.674;4.616;2024-01-11T11:15:14;63.43;;;25.77;;
20772;SDS011;10546;50.674;4.616;2024-01-11T11:17:40;51.00;;;23.53;;
20772;SDS011;10546;50.674;4.616;2024-01-11T11:20:07;47.60;;;21.73;;
20772;SDS011;10546;50.674;4.616;2024-01-11T11:22:37;58.23;;;26.00;;
20772;SDS011;10546;50.674;4.616;2024-01-11T11:25:11;59.27;;;25.23;;
20772;SDS011;10546;50.674;4.616;2024-01-11T11:27:48;46.77;;;21.73;;
20772;SDS011;10546;50.674;4.616;2024-01-11T11:30:14;44.27;;;20.77;;
20772;SDS011;10546;50.674;4.616;2024-01-11T11:32:45;35.13;;;18.47;;
20772;SDS011;10546;50.674;4.616;2024-01-11T11:35:11;54.67;;;24.73;;
20772;SDS011;10546;50.674;4.616;2024-01-11T11:37:37;46.70;;;22.47;;
20772;SDS011;10546;50.674;4.616;2024-01-11T11:40:13;61.10;;;25.33;;
20772;SDS011;10546;50.674;4.616;2024-01-11T11:42:39;55.37;;;24.83;;
20772;SDS011;10546;50.674;4.616;2024-01-11T11:45:07;53.17;;;25.30;;
20772;SDS011;10546;50.674;4.616;2024-01-11T11:47:37;58.03;;;26.83;;
20772;SDS011;10546;50.674;4.616;2024-01-11T11:50:11;47.03;;;23.60;;
20772;SDS011;10546;50.674;4.616;2024-01-11T11:52:38;32.77;;;15.17;;
20772;SDS011;10546;50.674;4.616;2024-01-11T11:55:09;49.93;;;22.60;;
20772;SDS011;10546;50.674;4.616;2024-01-11T11:57:35;52.80;;;25.20;;
20772;SDS011;10546;50.674;4.616;2024-01-11T12:00:02;49.03;;;21.70;;
20772;SDS011;10546;50.674;4.616;2024-01-11T12:02:33;61.73;;;27.30;;
20772;SDS011;10546;50.674;4.616;2024-01-11T12:05:01;55.13;;;24.97;;
20772;SDS011;10546;50.674;4.616;2024-01-11T12:07:27;51.00;;;23.30;;
20772;SDS011;10546;50.674;4.616;2024-01-11T12:09:59;55.03;;;26.20;;
20772;SDS011;10546;50.674;4.616;2024-01-11T12:12:25;55.47;;;25.63;;
20772;SDS011;10546;50.674;4.616;2024-01-11T12:14:53;51.43;;;25.63;;
20772;SDS011;10546;50.674;4.616;2024-01-11T12:17:29;56.73;;;26.00;;
20772;SDS011;10546;50.674;4.616;2024-01-11T12:19:56;47.10;;;22.53;;
20772;SDS011;10546;50.674;4.616;2024-01-11T12:22:31;47.93;;;23.87;;
20772;SDS011;10546;50.674;4.616;2024-01-11T12:25:23;52.23;;;24.73;;
20772;SDS011;10546;50.674;4.616;2024-01-11T12:27:52;53.87;;;25.70;;
20772;SDS011;10546;50.674;4.616;2024-01-11T12:30:18;53.77;;;24.27;;
20772;SDS011;10546;50.674;4.616;2024-01-11T12:32:53;47.80;;;20.73;;
20772;SDS011;10546;50.674;4.616;2024-01-11T12:35:20;50.80;;;23.47;;
20772;SDS011;10546;50.674;4.616;2024-01-11T12:37:55;56.30;;;25.90;;
20772;SDS011;10546;50.674;4.616;2024-01-11T12:40:36;52.47;;;25.83;;
20772;SDS011;10546;50.674;4.616;2024-01-11T12:43:10;47.33;;;22.30;;
20772;SDS011;10546;50.674;4.616;2024-01-11T12:45:41;45.63;;;21.17;;
20772;SDS011;10546;50.674;4.616;2024-01-11T12:48:10;42.80;;;19.10;;
20772;SDS011;10546;50.674;4.616;2024-01-11T12:50:46;35.70;;;16.57;;
20772;SDS011;10546;50.674;4.616;2024-01-11T12:53:17;46.60;;;23.40;;
20772;SDS011;10546;50.674;4.616;2024-01-11T12:56:10;57.60;;;22.70;;
20772;SDS011;10546;50.674;4.616;2024-01-11T12:59:04;48.83;;;21.77;;
20772;SDS011;10546;50.674;4.616;2024-01-11T13:01:35;52.33;;;20.50;;
20772;SDS011;10546;50.674;4.616;2024-01-11T13:04:07;52.00;;;22.77;;
20772;SDS011;10546;50.674;4.616;2024-01-11T13:06:47;42.13;;;17.17;;
20772;SDS011;10546;50.674;4.616;2024-01-11T13:09:18;42.90;;;18.97;;
20772;SDS011;10546;50.674;4.616;2024-01-11T13:11:52;54.10;;;24.07;;
20772;SDS011;10546;50.674;4.616;2024-01-11T13:14:25;46.67;;;19.73;;
20772;SDS011;10546;50.674;4.616;2024-01-11T13:16:57;58.37;;;24.87;;
20772;SDS011;10546;50.674;4.616;2024-01-11T13:19:25;53.73;;;24.53;;
20772;SDS011;10546;50.674;4.616;2024-01-11T13:21:54;55.87;;;25.97;;
20772;SDS011;10546;50.674;4.616;2024-01-11T13:24:25;51.93;;;24.27;;
20772;SDS011;10546;50.674;4.616;2024-01-11T13:26:53;48.90;;;24.43;;
20772;SDS011;10546;50.674;4.616;2024-01-11T13:29:26;46.47;;;20.57;;
20772;SDS011;10546;50.674;4.616;2024-01-11T13:31:58;51.50;;;22.50;;
20772;SDS011;10546;50.674;4.616;2024-01-11T13:34:31;46.10;;;21.50;;
20772;SDS011;10546;50.674;4.616;2024-01-11T13:37:00;46.50;;;21.53;;
20772;SDS011;10546;50.674;4.616;2024-01-11T13:39:33;35.60;;;16.97;;
20772;SDS011;10546;50.674;4.616;2024-01-11T13:42:00;46.70;;;22.90;;
20772;SDS011;10546;50.674;4.616;2024-01-11T13:44:33;33.30;;;13.73;;
20772;SDS011;10546;50.674;4.616;2024-01-11T13:47:01;61.90;;;26.30;;
20772;SDS011;10546;50.674;4.616;2024-01-11T13:49:34;46.97;;;22.23;;
20772;SDS011;10546;50.674;4.616;2024-01-11T13:52:23;37.97;;;20.53;;
20772;SDS011;10546;50.674;4.616;2024-01-11T13:55:10;45.40;;;20.47;;
20772;SDS011;10546;50.674;4.616;2024-01-11T13:57:41;46.67;;;20.03;;
20772;SDS011;10546;50.674;4.616;2024-01-11T14:00:31;42.37;;;19.83;;
20772;SDS011;10546;50.674;4.616;2024-01-11T14:02:59;36.23;;;17.03;;
20772;SDS011;10546;50.674;4.616;2024-01-11T14:05:26;39.43;;;18.17;;
20772;SDS011;10546;50.674;4.616;2024-01-11T14:07:57;41.00;;;19.83;;
20772;SDS011;10546;50.674;4.616;2024-01-11T14:10:33;42.50;;;19.13;;
20772;SDS011;10546;50.674;4.616;2024-01-11T14:13:04;41.63;;;17.13;;
20772;SDS011;10546;50.674;4.616;2024-01-11T14:15:31;40.30;;;18.53;;
20772;SDS011;10546;50.674;4.616;2024-01-11T14:18:09;39.03;;;19.53;;
20772;SDS011;10546;50.674;4.616;2024-01-11T14:20:35;41.13;;;19.40;;
20772;SDS011;10546;50.674;4.616;2024-01-11T14:23:07;39.53;;;15.57;;
20772;SDS011;10546;50.674;4.616;2024-01-11T14:25:33;36.50;;;18.43;;
20772;SDS011;10546;50.674;4.616;2024-01-11T14:28:00;37.47;;;16.93;;
20772;SDS011;10546;50.674;4.616;2024-01-11T14:30:29;37.87;;;16.23;;
20772;SDS011;10546;50.674;4.616;2024-01-11T14:32:56;32.37;;;14.53;;
20772;SDS011;10546;50.674;4.616;2024-01-11T14:35:27;37.37;;;17.63;;
20772;SDS011;10546;50.674;4.616;2024-01-11T14:37:56;40.07;;;18.03;;
20772;SDS011;10546;50.674;4.616;2024-01-11T14:40:29;38.90;;;17.27;;
20772;SDS011;10546;50.674;4.616;2024-01-11T14:42:58;29.17;;;14.37;;
20772;SDS011;10546;50.674;4.616;2024-01-11T14:45:29;40.77;;;18.60;;
20772;SDS011;10546;50.674;4.616;2024-01-11T14:48:01;34.43;;;16.73;;
20772;SDS011;10546;50.674;4.616;2024-01-11T14:50:39;40.70;;;18.23;;
20772;SDS011;10546;50.674;4.616;2024-01-11T14:53:10;33.30;;;16.23;;
20772;SDS011;10546;50.674;4.616;2024-01-11T14:55:39;33.13;;;15.43;;
20772;SDS011;10546;50.674;4.616;2024-01-11T14:58:13;32.77;;;16.50;;
20772;SDS011;10546;50.674;4.616;2024-01-11T15:00:41;32.13;;;14.80;;
20772;SDS011;10546;50.674;4.616;2024-01-11T15:03:11;38.37;;;16.20;;
20772;SDS011;10546;50.674;4.616;2024-01-11T15:05:39;37.10;;;16.23;;
20772;SDS011;10546;50.674;4.616;2024-01-11T15:08:18;32.93;;;14.57;;
20772;SDS011;10546;50.674;4.616;2024-01-11T15:10:51;33.23;;;15.80;;
20772;SDS011;10546;50.674;4.616;2024-01-11T15:13:24;33.73;;;16.33;;
20772;SDS011;10546;50.674;4.616;2024-01-11T15:16:05;47.27;;;17.00;;
20772;SDS011;10546;50.674;4.616;2024-01-11T15:18:35;34.80;;;17.10;;
20772;SDS011;10546;50.674;4.616;2024-01-11T15:21:02;42.57;;;18.07;;
20772;SDS011;10546;50.674;4.616;2024-01-11T15:23:30;37.97;;;17.13;;
20772;SDS011;10546;50.674;4.616;2024-01-11T15:26:01;38.17;;;16.80;;
20772;SDS011;10546;50.674;4.616;2024-01-11T15:28:27;37.53;;;17.50;;
20772;SDS011;10546;50.674;4.616;2024-01-11T15:30:58;35.47;;;15.37;;
20772;SDS011;10546;50.674;4.616;2024-01-11T15:33:27;33.73;;;15.93;;
20772;SDS011;10546;50.674;4.616;2024-01-11T15:35:57;36.10;;;17.10;;
20772;SDS011;10546;50.674;4.616;2024-01-11T15:38:22;40.00;;;17.13;;
20772;SDS011;10546;50.674;4.616;2024-01-11T15:40:49;35.27;;;16.33;;
20772;SDS011;10546;50.674;4.616;2024-01-11T15:43:21;35.40;;;17.27;;
20772;SDS011;10546;50.674;4.616;2024-01-11T15:45:51;33.80;;;16.17;;
20772;SDS011;10546;50.674;4.616;2024-01-11T15:48:18;40.27;;;16.13;;
20772;SDS011;10546;50.674;4.616;2024-01-11T15:50:46;36.77;;;16.13;;
20772;SDS011;10546;50.674;4.616;2024-01-11T15:53:14;34.90;;;16.57;;
20772;SDS011;10546;50.674;4.616;2024-01-11T15:55:43;35.57;;;17.40;;
20772;SDS011;10546;50.674;4.616;2024-01-11T15:58:11;39.93;;;15.90;;
20772;SDS011;10546;50.674;4.616;2024-01-11T16:00:37;33.63;;;16.30;;
20772;SDS011;10546;50.674;4.616;2024-01-11T16:03:05;35.30;;;15.67;;
20772;SDS011;10546;50.674;4.616;2024-01-11T16:05:33;39.87;;;17.27;;
20772;SDS011;10546;50.674;4.616;2024-01-11T16:08:00;35.20;;;17.23;;
20772;SDS011;10546;50.674;4.616;2024-01-11T16:10:29;39.13;;;17.77;;
20772;SDS011;10546;50.674;4.616;2024-01-11T16:13:35;33.77;;;15.20;;
20772;SDS011;10546;50.674;4.616;2024-01-11T16:16:22;38.60;;;17.70;;
20772;SDS011;10546;50.674;4.616;2024-01-11T16:19:14;36.53;;;14.77;;
20772;SDS011;10546;50.674;4.616;2024-01-11T16:22:03;37.37;;;17.00;;
20772;SDS011;10546;50.674;4.616;2024-01-11T16:25:23;41.60;;;15.97;;
20772;SDS011;10546;50.674;4.616;2024-01-11T16:27:54;39.53;;;17.23;;
20772;SDS011;10546;50.674;4.616;2024-01-11T16:30:42;32.00;;;14.37;;
20772;SDS011;10546;50.674;4.616;2024-01-11T16:33:13;39.27;;;17.43;;
20772;SDS011;10546;50.674;4.616;2024-01-11T16:36:07;32.83;;;15.87;;
20772;SDS011;10546;50.674;4.616;2024-01-11T16:38:45;39.67;;;16.53;;
20772;SDS011;10546;50.674;4.616;2024-01-11T16:41:27;44.10;;;17.33;;
20772;SDS011;10546;50.674;4.616;2024-01-11T16:43:55;35.77;;;16.00;;
20772;SDS011;10546;50.674;4.616;2024-01-11T16:46:39;38.70;;;16.33;;
20772;SDS011;10546;50.674;4.616;2024-01-11T16:49:11;41.63;;;18.43;;
20772;SDS011;10546;50.674;4.616;2024-01-11T16:51:44;37.63;;;17.67;;
20772;SDS011;10546;50.674;4.616;2024-01-11T16:54:44;41.43;;;19.13;;
20772;SDS011;10546;50.674;4.616;2024-01-11T16:57:13;40.50;;;17.47;;
20772;SDS011;10546;50.674;4.616;2024-01-11T17:00:07;40.73;;;18.27;;
20772;SDS011;10546;50.674;4.616;2024-01-11T17:02:34;45.00;;;20.60;;
20772;SDS011;10546;50.674;4.616;2024-01-11T17:05:18;40.63;;;18.67;;
20772;SDS011;10546;50.674;4.616;2024-01-11T17:07:51;42.43;;;18.50;;
20772;SDS011;10546;50.674;4.616;2024-01-11T17:10:17;40.37;;;18.20;;
20772;SDS011;10546;50.674;4.616;2024-01-11T17:12:53;37.10;;;16.57;;
20772;SDS011;10546;50.674;4.616;2024-01-11T17:15:24;50.00;;;19.90;;
20772;SDS011;10546;50.674;4.616;2024-01-11T17:18:02;41.67;;;18.80;;
20772;SDS011;10546;50.674;4.616;2024-01-11T17:20:29;41.73;;;19.00;;
20772;SDS011;10546;50.674;4.616;2024-01-11T17:22:59;34.47;;;16.27;;
20772;SDS011;10546;50.674;4.616;2024-01-11T17:25:24;39.53;;;16.87;;
20772;SDS011;10546;50.674;4.616;2024-01-11T17:27:51;36.80;;;16.90;;
20772;SDS011;10546;50.674;4.616;2024-01-11T17:30:19;34.17;;;16.00;;
20772;SDS011;10546;50.674;4.616;2024-01-11T17:32:46;36.97;;;15.63;;
20772;SDS011;10546;50.674;4.616;2024-01-11T17:35:21;40.07;;;16.73;;
20772;SDS011;10546;50.674;4.616;2024-01-11T17:37:51;38.20;;;16.67;;
20772;SDS011;10546;50.674;4.616;2024-01-11T17:40:18;34.83;;;15.97;;
20772;SDS011;10546;50.674;4.616;2024-01-11T17:42:45;30.67;;;14.67;;
20772;SDS011;10546;50.674;4.616;2024-01-11T17:45:16;30.90;;;13.27;;
20772;SDS011;10546;50.674;4.616;2024-01-11T17:47:41;33.60;;;15.13;;
20772;SDS011;10546;50.674;4.616;2024-01-11T17:50:27;36.03;;;16.07;;
20772;SDS011;10546;50.674;4.616;2024-01-11T17:53:05;42.60;;;17.97;;
20772;SDS011;10546;50.674;4.616;2024-01-11T17:56:02;35.43;;;16.17;;
20772;SDS011;10546;50.674;4.616;2024-01-11T17:58:45;30.23;;;12.53;;
20772;SDS011;10546;50.674;4.616;2024-01-11T18:01:30;37.10;;;16.30;;
20772;SDS011;10546;50.674;4.616;2024-01-11T18:04:07;33.03;;;14.47;;
20772;SDS011;10546;50.674;4.616;2024-01-11T18:07:13;37.73;;;16.07;;
20772;SDS011;10546;50.674;4.616;2024-01-11T18:09:45;31.13;;;15.07;;
20772;SDS011;10546;50.674;4.616;2024-01-11T18:12:48;30.13;;;13.70;;
20772;SDS011;10546;50.674;4.616;2024-01-11T18:18:08;30.40;;;14.40;;
20772;SDS011;10546;50.674;4.616;2024-01-11T18:20:38;31.27;;;15.13;;
20772;SDS011;10546;50.674;4.616;2024-01-11T18:23:41;31.50;;;14.50;;
20772;SDS011;10546;50.674;4.616;2024-01-11T18:26:11;29.50;;;13.97;;
20772;SDS011;10546;50.674;4.616;2024-01-11T18:29:06;31.93;;;15.20;;
20772;SDS011;10546;50.674;4.616;2024-01-11T18:31:35;39.03;;;16.53;;
20772;SDS011;10546;50.674;4.616;2024-01-11T18:34:09;36.87;;;17.17;;
20772;SDS011;10546;50.674;4.616;2024-01-11T18:36:45;35.37;;;15.33;;
20772;SDS011;10546;50.674;4.616;2024-01-11T18:39:16;34.43;;;16.20;;
20772;SDS011;10546;50.674;4.616;2024-01-11T18:41:45;32.83;;;15.33;;
20772;SDS011;10546;50.674;4.616;2024-01-11T18:44:11;33.40;;;15.27;;
20772;SDS011;10546;50.674;4.616;2024-01-11T18:46:45;29.57;;;13.80;;
20772;SDS011;10546;50.674;4.616;2024-01-11T18:49:15;33.53;;;14.87;;
20772;SDS011;10546;50.674;4.616;2024-01-11T18:51:46;32.70;;;14.47;;
20772;SDS011;10546;50.674;4.616;2024-01-11T18:54:18;36.47;;;15.83;;
20772;SDS011;10546;50.674;4.616;2024-01-11T18:56:51;55.93;;;28.67;;
20772;SDS011;10546;50.674;4.616;2024-01-11T18:59:21;32.67;;;14.50;;
20772;SDS011;10546;50.674;4.616;2024-01-11T19:01:57;33.20;;;14.70;;
20772;SDS011;10546;50.674;4.616;2024-01-11T19:04:29;28.50;;;13.23;;
20772;SDS011;10546;50.674;4.616;2024-01-11T19:07:02;33.63;;;15.30;;
20772;SDS011;10546;50.674;4.616;2024-01-11T19:09:39;29.30;;;13.77;;
20772;SDS011;10546;50.674;4.616;2024-01-11T19:12:14;36.57;;;17.23;;
20772;SDS011;10546;50.674;4.616;2024-01-11T19:15:03;36.03;;;16.23;;
20772;SDS011;10546;50.674;4.616;2024-01-11T19:17:54;34.27;;;15.80;;
20772;SDS011;10546;50.674;4.616;2024-01-11T19:20:23;31.80;;;14.67;;
20772;SDS011;10546;50.674;4.616;2024-01-11T19:22:58;29.20;;;14.07;;
20772;SDS011;10546;50.674;4.616;2024-01-11T19:25:43;35.50;;;15.67;;
20772;SDS011;10546;50.674;4.616;2024-01-11T19:28:21;38.40;;;17.70;;
20772;SDS011;10546;50.674;4.616;2024-01-11T19:30:59;32.40;;;14.70;;
20772;SDS011;10546;50.674;4.616;2024-01-11T19:34:10;53.93;;;24.77;;
20772;SDS011;10546;50.674;4.616;2024-01-11T19:37:32;44.40;;;19.07;;
20772;SDS011;10546;50.674;4.616;2024-01-11T19:40:20;56.23;;;24.80;;
20772;SDS011;10546;50.674;4.616;2024-01-11T19:42:52;41.80;;;19.57;;
20772;SDS011;10546;50.674;4.616;2024-01-11T19:45:25;34.17;;;16.60;;
20772;SDS011;10546;50.674;4.616;2024-01-11T19:48:16;70.17;;;31.60;;
20772;SDS011;10546;50.674;4.616;2024-01-11T19:50:53;36.67;;;16.50;;
20772;SDS011;10546;50.674;4.616;2024-01-11T19:53:28;44.20;;;19.40;;
20772;SDS011;10546;50.674;4.616;2024-01-11T19:55:54;44.33;;;18.63;;
20772;SDS011;10546;50.674;4.616;2024-01-11T19:58:29;58.27;;;23.37;;
20772;SDS011;10546;50.674;4.616;2024-01-11T20:01:01;47.27;;;21.90;;
20772;SDS011;10546;50.674;4.616;2024-01-11T20:03:29;44.23;;;21.13;;
20772;SDS011;10546;50.674;4.616;2024-01-11T20:05:58;47.00;;;21.00;;
20772;SDS011;10546;50.674;4.616;2024-01-11T20:08:25;44.57;;;21.30;;
20772;SDS011;10546;50.674;4.616;2024-01-11T20:10:53;43.03;;;20.40;;
20772;SDS011;10546;50.674;4.616;2024-01-11T20:13:37;54.67;;;27.23;;
20772;SDS011;10546;50.674;4.616;2024-01-11T20:16:07;54.43;;;25.37;;
20772;SDS011;10546;50.674;4.616;2024-01-11T20:18:36;55.43;;;22.80;;
20772;SDS011;10546;50.674;4.616;2024-01-11T20:21:03;47.90;;;21.97;;
20772;SDS011;10546;50.674;4.616;2024-01-11T20:23:29;44.73;;;21.07;;
20772;SDS011;10546;50.674;4.616;2024-01-11T20:25:56;44.73;;;20.67;;
20772;SDS011;10546;50.674;4.616;2024-01-11T20:28:27;46.57;;;22.60;;
20772;SDS011;10546;50.674;4.616;2024-01-11T20:30:53;70.30;;;31.93;;
20772;SDS011;10546;50.674;4.616;2024-01-11T20:33:19;155.20;;;59.07;;
20772;SDS011;10546;50.674;4.616;2024-01-11T20:35:48;73.83;;;33.27;;
20772;SDS011;10546;50.674;4.616;2024-01-11T20:38:38;51.57;;;25.90;;
20772;SDS011;10546;50.674;4.616;2024-01-11T20:41:08;65.33;;;30.57;;
20772;SDS011;10546;50.674;4.616;2024-01-11T20:43:39;64.20;;;31.20;;
20772;SDS011;10546;50.674;4.616;2024-01-11T20:46:06;70.53;;;32.40;;
20772;SDS011;10546;50.674;4.616;2024-01-11T20:48:42;53.30;;;24.57;;
20772;SDS011;10546;50.674;4.616;2024-01-11T20:51:10;49.17;;;24.73;;
20772;SDS011;10546;50.674;4.616;2024-01-11T20:53:45;46.67;;;23.47;;
20772;SDS011;10546;50.674;4.616;2024-01-11T20:56:25;58.50;;;26.27;;
20772;SDS011;10546;50.674;4.616;2024-01-11T20:58:55;50.70;;;25.23;;
20772;SDS011;10546;50.674;4.616;2024-01-11T21:01:24;48.83;;;23.40;;
20772;SDS011;10546;50.674;4.616;2024-01-11T21:03:50;42.60;;;23.57;;
20772;SDS011;10546;50.674;4.616;2024-01-11T21:06:20;53.90;;;26.47;;
20772;SDS011;10546;50.674;4.616;2024-01-11T21:08:46;62.93;;;28.43;;
20772;SDS011;10546;50.674;4.616;2024-01-11T21:11:13;71.20;;;35.20;;
20772;SDS011;10546;50.674;4.616;2024-01-11T21:13:44;63.97;;;32.00;;
20772;SDS011;10546;50.674;4.616;2024-01-11T21:16:09;63.93;;;30.77;;
20772;SDS011;10546;50.674;4.616;2024-01-11T21:18:38;65.80;;;30.87;;
20772;SDS011;10546;50.674;4.616;2024-01-11T21:21:16;62.93;;;28.00;;
20772;SDS011;10546;50.674;4.616;2024-01-11T21:23:42;68.57;;;31.33;;
20772;SDS011;10546;50.674;4.616;2024-01-11T21:26:10;59.37;;;28.47;;
20772;SDS011;10546;50.674;4.616;2024-01-11T21:28:37;60.40;;;26.70;;
20772;SDS011;10546;50.674;4.616;2024-01-11T21:31:02;656.63;;;63.13;;
20772;SDS011;10546;50.674;4.616;2024-01-11T21:33:30;55.23;;;25.97;;
20772;SDS011;10546;50.674;4.616;2024-01-11T21:35:59;56.03;;;26.27;;
20772;SDS011;10546;50.674;4.616;2024-01-11T21:38:25;82.90;;;35.37;;
20772;SDS011;10546;50.674;4.616;2024-01-11T21:40:51;66.70;;;30.77;;
20772;SDS011;10546;50.674;4.616;2024-01-11T21:43:17;84.53;;;36.93;;